| time (UTC) | temp C | wind direction | speed KPH | gust KPH | rain 1hr cm | rain 24hr cm | rain mn cm | humidity % | barometer mb |
| 20260506121320 | 20 | 157 | 0.0 | 0.0 | 0.00 | 13.21 | 0.00 | 52 | 999.6 |
| 20260506115319 | 20 | 157 | 0.0 | 0.0 | 0.00 | 2.64 | 0.00 | 53 | 999.7 |
| 20260506114309 | 20 | 157 | 0.0 | 0.0 | 0.00 | 2.64 | 0.00 | 53 | 999.6 |
| 20260506103235 | 19 | 225 | 0.0 | 0.0 | 0.00 | 2.64 | 0.00 | 57 | 1000.5 |
| 20260506100229 | 18 | 112 | 0.0 | 0.0 | 0.00 | 2.64 | 0.00 | 62 | 1000.7 |
| 20260506094223 | 17 | 180 | 0.0 | 1.6 | 0.00 | 2.64 | 0.00 | 66 | 1000.6 |
| 20260506091210 | 15 | 202 | 0.0 | 0.0 | 2.64 | 2.64 | 0.00 | 69 | 1000.7 |
| 20260506085157 | 15 | 202 | 0.0 | 0.0 | 2.64 | 2.64 | 0.00 | 70 | 1000.5 |
| 20260506082150 | 14 | 202 | 0.0 | 0.0 | 2.64 | 2.64 | 0.00 | 73 | 1000.8 |
| 20260506073123 | 13 | 202 | 0.0 | 0.0 | 0.00 | 13.21 | 0.00 | 77 | 1001.1 |
| 20260506072123 | 13 | 202 | 0.0 | 0.0 | 0.00 | 13.21 | 0.00 | 78 | 1000.9 |
| 20260506062107 | 10 | 225 | 0.0 | 0.0 | 0.00 | 13.21 | 0.00 | 82 | 1001.0 |
| 20260506041015 | 6 | 225 | 0.0 | 0.0 | 0.00 | 13.21 | 0.00 | 79 | 1001.7 |
| 20260505225811 | 12 | 225 | 0.0 | 0.0 | 0.00 | 13.21 | 0.00 | 72 | 1002.7 |
| 20260505222753 | 12 | 225 | 0.0 | 3.2 | 0.00 | 13.21 | 0.00 | 72 | 1002.8 |
| 20260505221752 | 12 | 247 | 0.0 | 0.0 | 0.00 | 13.21 | 0.00 | 72 | 1002.6 |
| 20260505200707 | 13 | 270 | 0.0 | 0.0 | 0.00 | 13.21 | 0.00 | 71 | 1002.3 |
| 20260505192648 | 13 | 270 | 0.0 | 0.0 | 0.00 | 13.21 | 0.00 | 71 | 1001.8 |
| 20260505184625 | 14 | 270 | 0.0 | 0.0 | 0.00 | 13.21 | 0.00 | 70 | 1001.6 |
| 20260505165551 | 15 | 270 | 0.0 | 0.0 | 0.00 | 2.64 | 0.00 | 69 | 1000.9 |
| 20260505164541 | 15 | 270 | 0.0 | 0.0 | 0.00 | 2.64 | 0.00 | 69 | 1001.0 |
| 20260505162539 | 15 | 270 | 0.0 | 0.0 | 0.00 | 2.64 | 0.00 | 68 | 1001.0 |
| 20260505124400 | 21 | 180 | 3.2 | 3.2 | 3.28 | 2.64 | 0.00 | 52 | 1001.4 |